sensor_id;sensor_type;location;lat;lon;timestamp;P1;durP1;ratioP1;P2;durP2;ratioP2
43835;SDS011;39345;43.964;25.340;2022-12-11T00:00:21;15.13;;;8.27;;
43835;SDS011;39345;43.964;25.340;2022-12-11T00:02:49;13.85;;;7.22;;
43835;SDS011;39345;43.964;25.340;2022-12-11T00:05:16;17.35;;;8.45;;
43835;SDS011;39345;43.964;25.340;2022-12-11T00:07:44;15.70;;;8.23;;
43835;SDS011;39345;43.964;25.340;2022-12-11T00:10:11;13.95;;;8.25;;
43835;SDS011;39345;43.964;25.340;2022-12-11T00:12:39;14.85;;;8.10;;
43835;SDS011;39345;43.964;25.340;2022-12-11T00:15:06;15.70;;;8.18;;
43835;SDS011;39345;43.964;25.340;2022-12-11T00:17:34;15.85;;;8.48;;
43835;SDS011;39345;43.964;25.340;2022-12-11T00:20:02;13.32;;;7.68;;
43835;SDS011;39345;43.964;25.340;2022-12-11T00:22:30;14.15;;;8.15;;
43835;SDS011;39345;43.964;25.340;2022-12-11T00:24:58;13.13;;;7.70;;
43835;SDS011;39345;43.964;25.340;2022-12-11T00:27:25;9.52;;;6.82;;
43835;SDS011;39345;43.964;25.340;2022-12-11T00:29:52;12.85;;;7.95;;
43835;SDS011;39345;43.964;25.340;2022-12-11T00:32:20;13.23;;;7.70;;
43835;SDS011;39345;43.964;25.340;2022-12-11T00:34:47;20.35;;;9.27;;
43835;SDS011;39345;43.964;25.340;2022-12-11T00:37:15;13.10;;;7.97;;
43835;SDS011;39345;43.964;25.340;2022-12-11T00:39:43;13.13;;;8.20;;
43835;SDS011;39345;43.964;25.340;2022-12-11T00:42:10;13.18;;;7.28;;
43835;SDS011;39345;43.964;25.340;2022-12-11T00:44:38;13.93;;;8.20;;
43835;SDS011;39345;43.964;25.340;2022-12-11T00:47:05;14.30;;;7.72;;
43835;SDS011;39345;43.964;25.340;2022-12-11T00:49:33;17.58;;;7.68;;
43835;SDS011;39345;43.964;25.340;2022-12-11T00:52:01;13.88;;;7.25;;
43835;SDS011;39345;43.964;25.340;2022-12-11T00:54:28;13.20;;;7.47;;
43835;SDS011;39345;43.964;25.340;2022-12-11T00:56:56;12.68;;;6.88;;
43835;SDS011;39345;43.964;25.340;2022-12-11T00:59:23;12.02;;;7.80;;
43835;SDS011;39345;43.964;25.340;2022-12-11T01:01:51;15.80;;;6.80;;
43835;SDS011;39345;43.964;25.340;2022-12-11T01:04:18;15.45;;;7.13;;
43835;SDS011;39345;43.964;25.340;2022-12-11T01:06:45;12.30;;;7.40;;
43835;SDS011;39345;43.964;25.340;2022-12-11T01:09:13;12.25;;;6.78;;
43835;SDS011;39345;43.964;25.340;2022-12-11T01:11:59;10.13;;;7.05;;
43835;SDS011;39345;43.964;25.340;2022-12-11T01:14:26;9.15;;;6.63;;
43835;SDS011;39345;43.964;25.340;2022-12-11T01:16:54;12.65;;;7.28;;
43835;SDS011;39345;43.964;25.340;2022-12-11T01:19:21;11.98;;;6.85;;
43835;SDS011;39345;43.964;25.340;2022-12-11T01:21:49;13.25;;;7.10;;
43835;SDS011;39345;43.964;25.340;2022-12-11T01:24:16;11.02;;;6.22;;
43835;SDS011;39345;43.964;25.340;2022-12-11T01:26:43;14.80;;;6.40;;
43835;SDS011;39345;43.964;25.340;2022-12-11T01:29:11;16.60;;;6.22;;
43835;SDS011;39345;43.964;25.340;2022-12-11T01:31:38;12.27;;;6.53;;
43835;SDS011;39345;43.964;25.340;2022-12-11T01:34:06;14.55;;;6.00;;
43835;SDS011;39345;43.964;25.340;2022-12-11T01:36:33;10.75;;;6.10;;
43835;SDS011;39345;43.964;25.340;2022-12-11T01:39:01;15.38;;;6.53;;
43835;SDS011;39345;43.964;25.340;2022-12-11T01:41:28;13.50;;;5.80;;
43835;SDS011;39345;43.964;25.340;2022-12-11T01:46:26;16.50;;;6.53;;
43835;SDS011;39345;43.964;25.340;2022-12-11T01:48:54;13.50;;;6.40;;
43835;SDS011;39345;43.964;25.340;2022-12-11T01:51:22;13.75;;;5.70;;
43835;SDS011;39345;43.964;25.340;2022-12-11T01:53:51;12.27;;;5.40;;
43835;SDS011;39345;43.964;25.340;2022-12-11T01:56:20;15.70;;;5.47;;
43835;SDS011;39345;43.964;25.340;2022-12-11T01:58:49;18.08;;;6.13;;
43835;SDS011;39345;43.964;25.340;2022-12-11T02:01:24;17.35;;;6.22;;
43835;SDS011;39345;43.964;25.340;2022-12-11T02:03:54;15.65;;;5.53;;
43835;SDS011;39345;43.964;25.340;2022-12-11T02:06:29;16.48;;;5.50;;
43835;SDS011;39345;43.964;25.340;2022-12-11T02:08:56;15.00;;;6.07;;
43835;SDS011;39345;43.964;25.340;2022-12-11T02:11:25;20.50;;;5.97;;
43835;SDS011;39345;43.964;25.340;2022-12-11T02:13:56;14.30;;;6.25;;
43835;SDS011;39345;43.964;25.340;2022-12-11T02:16:40;16.20;;;5.97;;
43835;SDS011;39345;43.964;25.340;2022-12-11T02:21:47;13.70;;;6.63;;
43835;SDS011;39345;43.964;25.340;2022-12-11T02:24:37;13.93;;;5.70;;
43835;SDS011;39345;43.964;25.340;2022-12-11T02:30:06;16.20;;;6.13;;
43835;SDS011;39345;43.964;25.340;2022-12-11T02:32:36;15.80;;;6.20;;
43835;SDS011;39345;43.964;25.340;2022-12-11T02:37:36;16.25;;;6.35;;
43835;SDS011;39345;43.964;25.340;2022-12-11T02:40:06;18.00;;;5.70;;
43835;SDS011;39345;43.964;25.340;2022-12-11T02:42:36;18.15;;;5.93;;
43835;SDS011;39345;43.964;25.340;2022-12-11T02:45:06;20.83;;;6.40;;
43835;SDS011;39345;43.964;25.340;2022-12-11T02:47:34;12.90;;;5.63;;
43835;SDS011;39345;43.964;25.340;2022-12-11T02:50:05;15.85;;;6.20;;
43835;SDS011;39345;43.964;25.340;2022-12-11T02:52:35;15.82;;;6.53;;
43835;SDS011;39345;43.964;25.340;2022-12-11T02:55:04;17.20;;;6.40;;
43835;SDS011;39345;43.964;25.340;2022-12-11T02:57:43;18.17;;;6.40;;
43835;SDS011;39345;43.964;25.340;2022-12-11T03:00:11;13.05;;;5.95;;
43835;SDS011;39345;43.964;25.340;2022-12-11T03:02:39;14.70;;;6.20;;
43835;SDS011;39345;43.964;25.340;2022-12-11T03:05:08;15.07;;;6.30;;
43835;SDS011;39345;43.964;25.340;2022-12-11T03:07:37;16.88;;;7.10;;
43835;SDS011;39345;43.964;25.340;2022-12-11T03:10:06;16.05;;;6.25;;
43835;SDS011;39345;43.964;25.340;2022-12-11T03:12:38;16.77;;;6.80;;
43835;SDS011;39345;43.964;25.340;2022-12-11T03:15:07;15.70;;;6.63;;
43835;SDS011;39345;43.964;25.340;2022-12-11T03:22:47;19.83;;;7.53;;
43835;SDS011;39345;43.964;25.340;2022-12-11T03:30:19;17.67;;;6.55;;
43835;SDS011;39345;43.964;25.340;2022-12-11T03:32:51;16.05;;;6.32;;
43835;SDS011;39345;43.964;25.340;2022-12-11T03:35:22;20.35;;;6.30;;
43835;SDS011;39345;43.964;25.340;2022-12-11T03:37:51;20.60;;;6.78;;
43835;SDS011;39345;43.964;25.340;2022-12-11T03:40:20;19.40;;;6.10;;
43835;SDS011;39345;43.964;25.340;2022-12-11T03:42:49;16.52;;;5.75;;
43835;SDS011;39345;43.964;25.340;2022-12-11T03:45:18;19.55;;;6.90;;
43835;SDS011;39345;43.964;25.340;2022-12-11T03:47:46;14.40;;;6.90;;
43835;SDS011;39345;43.964;25.340;2022-12-11T03:50:14;17.88;;;6.45;;
43835;SDS011;39345;43.964;25.340;2022-12-11T03:52:43;18.20;;;6.15;;
43835;SDS011;39345;43.964;25.340;2022-12-11T03:55:12;19.98;;;6.05;;
43835;SDS011;39345;43.964;25.340;2022-12-11T03:57:41;16.27;;;6.35;;
43835;SDS011;39345;43.964;25.340;2022-12-11T04:00:10;16.55;;;6.07;;
43835;SDS011;39345;43.964;25.340;2022-12-11T04:02:38;14.85;;;5.65;;
43835;SDS011;39345;43.964;25.340;2022-12-11T04:05:06;16.85;;;5.38;;
43835;SDS011;39345;43.964;25.340;2022-12-11T04:07:34;19.95;;;6.65;;
43835;SDS011;39345;43.964;25.340;2022-12-11T04:10:03;18.83;;;5.45;;
43835;SDS011;39345;43.964;25.340;2022-12-11T04:12:30;14.65;;;6.57;;
43835;SDS011;39345;43.964;25.340;2022-12-11T04:14:58;18.25;;;5.00;;
43835;SDS011;39345;43.964;25.340;2022-12-11T04:17:32;13.15;;;5.20;;
43835;SDS011;39345;43.964;25.340;2022-12-11T04:20:19;13.25;;;4.70;;
43835;SDS011;39345;43.964;25.340;2022-12-11T04:23:16;17.63;;;4.78;;
43835;SDS011;39345;43.964;25.340;2022-12-11T04:26:20;19.17;;;4.28;;
43835;SDS011;39345;43.964;25.340;2022-12-11T04:28:48;12.57;;;4.47;;
43835;SDS011;39345;43.964;25.340;2022-12-11T04:31:16;16.58;;;4.40;;
43835;SDS011;39345;43.964;25.340;2022-12-11T04:33:45;17.10;;;3.95;;
43835;SDS011;39345;43.964;25.340;2022-12-11T04:36:12;13.30;;;4.03;;
43835;SDS011;39345;43.964;25.340;2022-12-11T04:38:40;12.65;;;3.63;;
43835;SDS011;39345;43.964;25.340;2022-12-11T04:41:09;16.25;;;4.07;;
43835;SDS011;39345;43.964;25.340;2022-12-11T04:43:37;15.63;;;3.90;;
43835;SDS011;39345;43.964;25.340;2022-12-11T04:46:12;12.68;;;3.72;;
43835;SDS011;39345;43.964;25.340;2022-12-11T04:48:40;12.00;;;3.83;;
43835;SDS011;39345;43.964;25.340;2022-12-11T04:51:08;11.30;;;3.70;;
43835;SDS011;39345;43.964;25.340;2022-12-11T04:53:35;16.33;;;3.30;;
43835;SDS011;39345;43.964;25.340;2022-12-11T04:56:06;9.90;;;3.10;;
43835;SDS011;39345;43.964;25.340;2022-12-11T04:58:34;15.38;;;4.07;;
43835;SDS011;39345;43.964;25.340;2022-12-11T05:01:09;16.55;;;4.00;;
43835;SDS011;39345;43.964;25.340;2022-12-11T05:03:37;13.00;;;3.88;;
43835;SDS011;39345;43.964;25.340;2022-12-11T05:06:04;11.75;;;3.30;;
43835;SDS011;39345;43.964;25.340;2022-12-11T05:08:33;10.05;;;3.67;;
43835;SDS011;39345;43.964;25.340;2022-12-11T05:11:01;13.02;;;3.00;;
43835;SDS011;39345;43.964;25.340;2022-12-11T05:13:29;14.38;;;3.17;;
43835;SDS011;39345;43.964;25.340;2022-12-11T05:15:57;13.77;;;4.28;;
43835;SDS011;39345;43.964;25.340;2022-12-11T05:18:25;13.02;;;3.40;;
43835;SDS011;39345;43.964;25.340;2022-12-11T05:20:59;11.68;;;3.25;;
43835;SDS011;39345;43.964;25.340;2022-12-11T05:23:27;16.25;;;4.43;;
43835;SDS011;39345;43.964;25.340;2022-12-11T05:25:55;10.90;;;3.10;;
43835;SDS011;39345;43.964;25.340;2022-12-11T05:28:23;12.85;;;3.22;;
43835;SDS011;39345;43.964;25.340;2022-12-11T05:30:58;12.18;;;3.55;;
43835;SDS011;39345;43.964;25.340;2022-12-11T05:35:53;14.02;;;3.65;;
43835;SDS011;39345;43.964;25.340;2022-12-11T05:38:21;12.55;;;3.92;;
43835;SDS011;39345;43.964;25.340;2022-12-11T05:40:58;12.02;;;3.45;;
43835;SDS011;39345;43.964;25.340;2022-12-11T05:43:27;12.52;;;3.22;;
43835;SDS011;39345;43.964;25.340;2022-12-11T05:45:55;9.07;;;2.83;;
43835;SDS011;39345;43.964;25.340;2022-12-11T05:48:23;11.70;;;3.13;;
43835;SDS011;39345;43.964;25.340;2022-12-11T05:50:58;14.25;;;3.65;;
43835;SDS011;39345;43.964;25.340;2022-12-11T05:53:25;12.02;;;3.05;;
43835;SDS011;39345;43.964;25.340;2022-12-11T05:55:53;10.20;;;2.95;;
43835;SDS011;39345;43.964;25.340;2022-12-11T05:58:20;9.45;;;3.33;;
43835;SDS011;39345;43.964;25.340;2022-12-11T06:00:48;8.10;;;2.75;;
43835;SDS011;39345;43.964;25.340;2022-12-11T06:03:15;8.15;;;2.90;;
43835;SDS011;39345;43.964;25.340;2022-12-11T06:05:43;10.27;;;2.85;;
43835;SDS011;39345;43.964;25.340;2022-12-11T06:08:10;13.65;;;2.83;;
43835;SDS011;39345;43.964;25.340;2022-12-11T06:10:43;12.48;;;4.10;;
43835;SDS011;39345;43.964;25.340;2022-12-11T06:13:11;10.75;;;3.65;;
43835;SDS011;39345;43.964;25.340;2022-12-11T06:15:38;11.43;;;4.10;;
43835;SDS011;39345;43.964;25.340;2022-12-11T06:18:05;12.93;;;3.70;;
43835;SDS011;39345;43.964;25.340;2022-12-11T06:20:33;9.90;;;3.03;;
43835;SDS011;39345;43.964;25.340;2022-12-11T06:23:01;13.55;;;3.88;;
43835;SDS011;39345;43.964;25.340;2022-12-11T06:25:29;11.93;;;3.30;;
43835;SDS011;39345;43.964;25.340;2022-12-11T06:27:57;11.52;;;3.10;;
43835;SDS011;39345;43.964;25.340;2022-12-11T06:30:24;12.07;;;3.20;;
43835;SDS011;39345;43.964;25.340;2022-12-11T06:33:05;13.70;;;3.70;;
43835;SDS011;39345;43.964;25.340;2022-12-11T06:35:32;15.35;;;3.70;;
43835;SDS011;39345;43.964;25.340;2022-12-11T06:38:07;17.17;;;3.92;;
43835;SDS011;39345;43.964;25.340;2022-12-11T06:40:36;15.27;;;4.10;;
43835;SDS011;39345;43.964;25.340;2022-12-11T06:43:03;11.93;;;4.95;;
43835;SDS011;39345;43.964;25.340;2022-12-11T06:45:31;10.45;;;3.28;;
43835;SDS011;39345;43.964;25.340;2022-12-11T06:47:58;14.38;;;4.05;;
43835;SDS011;39345;43.964;25.340;2022-12-11T06:50:26;14.45;;;4.57;;
43835;SDS011;39345;43.964;25.340;2022-12-11T06:52:54;14.07;;;4.97;;
43835;SDS011;39345;43.964;25.340;2022-12-11T06:55:21;9.63;;;4.18;;
43835;SDS011;39345;43.964;25.340;2022-12-11T06:57:49;13.48;;;5.72;;
43835;SDS011;39345;43.964;25.340;2022-12-11T07:00:16;12.43;;;5.55;;
43835;SDS011;39345;43.964;25.340;2022-12-11T07:02:44;8.07;;;4.80;;
43835;SDS011;39345;43.964;25.340;2022-12-11T07:05:11;9.00;;;4.50;;
43835;SDS011;39345;43.964;25.340;2022-12-11T07:07:39;9.70;;;5.15;;
43835;SDS011;39345;43.964;25.340;2022-12-11T07:10:07;8.27;;;4.85;;
43835;SDS011;39345;43.964;25.340;2022-12-11T07:12:35;10.57;;;5.60;;
43835;SDS011;39345;43.964;25.340;2022-12-11T07:15:03;11.55;;;5.32;;
43835;SDS011;39345;43.964;25.340;2022-12-11T07:17:30;9.95;;;6.20;;
43835;SDS011;39345;43.964;25.340;2022-12-11T07:19:58;10.07;;;5.93;;
43835;SDS011;39345;43.964;25.340;2022-12-11T07:22:27;12.40;;;6.35;;
43835;SDS011;39345;43.964;25.340;2022-12-11T07:24:54;9.82;;;5.95;;
43835;SDS011;39345;43.964;25.340;2022-12-11T07:27:22;12.32;;;7.20;;
43835;SDS011;39345;43.964;25.340;2022-12-11T07:29:49;14.40;;;6.32;;
43835;SDS011;39345;43.964;25.340;2022-12-11T07:32:17;13.90;;;6.70;;
43835;SDS011;39345;43.964;25.340;2022-12-11T07:34:45;13.30;;;5.90;;
43835;SDS011;39345;43.964;25.340;2022-12-11T07:37:17;19.33;;;9.95;;
43835;SDS011;39345;43.964;25.340;2022-12-11T07:39:44;11.73;;;6.65;;
43835;SDS011;39345;43.964;25.340;2022-12-11T07:42:14;11.40;;;6.65;;
43835;SDS011;39345;43.964;25.340;2022-12-11T07:44:41;10.32;;;6.40;;
43835;SDS011;39345;43.964;25.340;2022-12-11T07:47:09;12.27;;;6.65;;
43835;SDS011;39345;43.964;25.340;2022-12-11T07:49:36;23.40;;;11.10;;
43835;SDS011;39345;43.964;25.340;2022-12-11T07:52:04;11.65;;;6.65;;
43835;SDS011;39345;43.964;25.340;2022-12-11T07:54:31;16.20;;;7.53;;
43835;SDS011;39345;43.964;25.340;2022-12-11T07:56:59;10.10;;;6.85;;
43835;SDS011;39345;43.964;25.340;2022-12-11T07:59:26;12.07;;;7.50;;
43835;SDS011;39345;43.964;25.340;2022-12-11T08:01:53;10.85;;;8.13;;
43835;SDS011;39345;43.964;25.340;2022-12-11T08:04:21;11.52;;;7.85;;
43835;SDS011;39345;43.964;25.340;2022-12-11T08:06:49;16.52;;;11.48;;
43835;SDS011;39345;43.964;25.340;2022-12-11T08:09:17;16.45;;;10.93;;
43835;SDS011;39345;43.964;25.340;2022-12-11T08:11:48;11.40;;;7.50;;
43835;SDS011;39345;43.964;25.340;2022-12-11T08:14:16;14.68;;;7.03;;
43835;SDS011;39345;43.964;25.340;2022-12-11T08:16:44;15.80;;;8.23;;
43835;SDS011;39345;43.964;25.340;2022-12-11T08:19:11;16.13;;;9.27;;
43835;SDS011;39345;43.964;25.340;2022-12-11T08:21:39;16.05;;;9.02;;
43835;SDS011;39345;43.964;25.340;2022-12-11T08:24:07;16.17;;;9.93;;
43835;SDS011;39345;43.964;25.340;2022-12-11T08:26:35;12.88;;;9.13;;
43835;SDS011;39345;43.964;25.340;2022-12-11T08:29:02;14.02;;;7.68;;
43835;SDS011;39345;43.964;25.340;2022-12-11T08:31:31;13.13;;;8.93;;
43835;SDS011;39345;43.964;25.340;2022-12-11T08:33:59;11.80;;;7.18;;
43835;SDS011;39345;43.964;25.340;2022-12-11T08:36:26;11.07;;;6.63;;
43835;SDS011;39345;43.964;25.340;2022-12-11T08:38:54;12.15;;;6.90;;
43835;SDS011;39345;43.964;25.340;2022-12-11T08:41:23;8.82;;;5.60;;
43835;SDS011;39345;43.964;25.340;2022-12-11T08:43:51;9.55;;;6.18;;
43835;SDS011;39345;43.964;25.340;2022-12-11T08:46:30;9.23;;;6.00;;
43835;SDS011;39345;43.964;25.340;2022-12-11T08:48:58;9.85;;;6.55;;
43835;SDS011;39345;43.964;25.340;2022-12-11T08:51:28;12.15;;;6.88;;
43835;SDS011;39345;43.964;25.340;2022-12-11T08:53:57;12.15;;;7.45;;
43835;SDS011;39345;43.964;25.340;2022-12-11T08:56:25;15.00;;;8.00;;
43835;SDS011;39345;43.964;25.340;2022-12-11T08:58:53;11.77;;;8.00;;
43835;SDS011;39345;43.964;25.340;2022-12-11T09:01:22;15.90;;;8.55;;
43835;SDS011;39345;43.964;25.340;2022-12-11T09:03:50;11.88;;;8.70;;
43835;SDS011;39345;43.964;25.340;2022-12-11T09:06:18;14.57;;;9.63;;
43835;SDS011;39345;43.964;25.340;2022-12-11T09:08:47;16.75;;;10.00;;
43835;SDS011;39345;43.964;25.340;2022-12-11T09:11:25;24.33;;;14.73;;
43835;SDS011;39345;43.964;25.340;2022-12-11T09:13:53;15.98;;;10.98;;
43835;SDS011;39345;43.964;25.340;2022-12-11T09:16:22;17.73;;;11.40;;
43835;SDS011;39345;43.964;25.340;2022-12-11T09:18:50;16.98;;;11.10;;
43835;SDS011;39345;43.964;25.340;2022-12-11T09:21:19;15.70;;;11.25;;
43835;SDS011;39345;43.964;25.340;2022-12-11T09:23:47;16.15;;;12.45;;
43835;SDS011;39345;43.964;25.340;2022-12-11T09:26:16;21.88;;;13.02;;
43835;SDS011;39345;43.964;25.340;2022-12-11T09:28:43;18.83;;;12.10;;
43835;SDS011;39345;43.964;25.340;2022-12-11T09:31:17;108.68;;;66.25;;
43835;SDS011;39345;43.964;25.340;2022-12-11T09:33:45;56.63;;;37.10;;
43835;SDS011;39345;43.964;25.340;2022-12-11T09:36:13;70.72;;;42.40;;
43835;SDS011;39345;43.964;25.340;2022-12-11T09:38:40;33.83;;;21.15;;
43835;SDS011;39345;43.964;25.340;2022-12-11T09:46:25;18.98;;;13.40;;
43835;SDS011;39345;43.964;25.340;2022-12-11T09:48:59;37.58;;;24.15;;
43835;SDS011;39345;43.964;25.340;2022-12-11T09:53:55;30.63;;;19.95;;
43835;SDS011;39345;43.964;25.340;2022-12-11T09:56:27;111.22;;;73.15;;
43835;SDS011;39345;43.964;25.340;2022-12-11T09:59:12;166.38;;;107.93;;
43835;SDS011;39345;43.964;25.340;2022-12-11T10:09:47;32.10;;;22.70;;
43835;SDS011;39345;43.964;25.340;2022-12-11T10:17:39;14.80;;;11.30;;
43835;SDS011;39345;43.964;25.340;2022-12-11T10:20:23;17.52;;;11.60;;
43835;SDS011;39345;43.964;25.340;2022-12-11T10:22:54;17.95;;;13.15;;
43835;SDS011;39345;43.964;25.340;2022-12-11T10:25:26;18.27;;;12.82;;
43835;SDS011;39345;43.964;25.340;2022-12-11T10:27:55;21.15;;;15.65;;
43835;SDS011;39345;43.964;25.340;2022-12-11T10:30:34;19.15;;;14.57;;
43835;SDS011;39345;43.964;25.340;2022-12-11T10:35:50;17.77;;;13.85;;
43835;SDS011;39345;43.964;25.340;2022-12-11T10:38:28;18.25;;;13.13;;
43835;SDS011;39345;43.964;25.340;2022-12-11T10:43:40;16.05;;;12.63;;
43835;SDS011;39345;43.964;25.340;2022-12-11T10:46:20;21.95;;;16.13;;
43835;SDS011;39345;43.964;25.340;2022-12-11T10:48:52;19.80;;;15.13;;
43835;SDS011;39345;43.964;25.340;2022-12-11T10:51:25;32.40;;;22.90;;
43835;SDS011;39345;43.964;25.340;2022-12-11T10:54:02;32.58;;;23.45;;
43835;SDS011;39345;43.964;25.340;2022-12-11T10:56:33;17.65;;;13.90;;
43835;SDS011;39345;43.964;25.340;2022-12-11T10:59:01;26.27;;;18.85;;
43835;SDS011;39345;43.964;25.340;2022-12-11T11:01:30;22.75;;;16.80;;
43835;SDS011;39345;43.964;25.340;2022-12-11T11:04:01;24.20;;;19.00;;
43835;SDS011;39345;43.964;25.340;2022-12-11T11:06:30;20.17;;;15.95;;
43835;SDS011;39345;43.964;25.340;2022-12-11T11:08:58;25.40;;;15.13;;
43835;SDS011;39345;43.964;25.340;2022-12-11T11:11:27;20.67;;;15.15;;
43835;SDS011;39345;43.964;25.340;2022-12-11T11:14:05;22.05;;;15.40;;
43835;SDS011;39345;43.964;25.340;2022-12-11T11:16:36;26.52;;;18.25;;
43835;SDS011;39345;43.964;25.340;2022-12-11T11:19:04;29.48;;;19.10;;
43835;SDS011;39345;43.964;25.340;2022-12-11T11:21:33;21.02;;;14.85;;
43835;SDS011;39345;43.964;25.340;2022-12-11T11:24:01;30.30;;;21.52;;
43835;SDS011;39345;43.964;25.340;2022-12-11T11:26:30;38.17;;;26.15;;
43835;SDS011;39345;43.964;25.340;2022-12-11T11:29:28;22.38;;;15.88;;
43835;SDS011;39345;43.964;25.340;2022-12-11T11:31:58;16.73;;;12.65;;
43835;SDS011;39345;43.964;25.340;2022-12-11T11:34:28;49.60;;;31.63;;
43835;SDS011;39345;43.964;25.340;2022-12-11T11:36:57;17.40;;;12.60;;
43835;SDS011;39345;43.964;25.340;2022-12-11T11:44:26;14.55;;;9.50;;
43835;SDS011;39345;43.964;25.340;2022-12-11T11:46:57;15.25;;;9.05;;
43835;SDS011;39345;43.964;25.340;2022-12-11T11:49:40;10.95;;;8.68;;
43835;SDS011;39345;43.964;25.340;2022-12-11T11:52:20;15.52;;;10.93;;
43835;SDS011;39345;43.964;25.340;2022-12-11T11:57:48;20.15;;;14.50;;
43835;SDS011;39345;43.964;25.340;2022-12-11T12:00:21;10.13;;;7.80;;
43835;SDS011;39345;43.964;25.340;2022-12-11T12:02:59;14.65;;;8.00;;
43835;SDS011;39345;43.964;25.340;2022-12-11T12:10:43;5.07;;;3.00;;
43835;SDS011;39345;43.964;25.340;2022-12-11T12:16:02;6.18;;;2.90;;
43835;SDS011;39345;43.964;25.340;2022-12-11T12:26:27;4.30;;;3.28;;
43835;SDS011;39345;43.964;25.340;2022-12-11T12:31:39;4.53;;;3.25;;
43835;SDS011;39345;43.964;25.340;2022-12-11T12:36:48;3.22;;;2.00;;
43835;SDS011;39345;43.964;25.340;2022-12-11T12:39:21;3.35;;;2.30;;
43835;SDS011;39345;43.964;25.340;2022-12-11T12:44:21;3.25;;;2.50;;
43835;SDS011;39345;43.964;25.340;2022-12-11T12:49:54;5.38;;;2.40;;
43835;SDS011;39345;43.964;25.340;2022-12-11T12:52:36;4.30;;;2.17;;
43835;SDS011;39345;43.964;25.340;2022-12-11T12:55:04;2.90;;;2.10;;
43835;SDS011;39345;43.964;25.340;2022-12-11T13:00:24;4.43;;;2.47;;
43835;SDS011;39345;43.964;25.340;2022-12-11T13:02:52;7.55;;;3.28;;
43835;SDS011;39345;43.964;25.340;2022-12-11T13:05:22;4.72;;;3.22;;
43835;SDS011;39345;43.964;25.340;2022-12-11T13:07:57;4.75;;;3.10;;
43835;SDS011;39345;43.964;25.340;2022-12-11T13:10:33;4.38;;;3.28;;
43835;SDS011;39345;43.964;25.340;2022-12-11T13:13:01;4.82;;;3.20;;
43835;SDS011;39345;43.964;25.340;2022-12-11T13:15:37;4.60;;;3.03;;
43835;SDS011;39345;43.964;25.340;2022-12-11T13:18:29;4.07;;;3.05;;
43835;SDS011;39345;43.964;25.340;2022-12-11T13:20:53;6.70;;;3.38;;
43835;SDS011;39345;43.964;25.340;2022-12-11T13:23:28;4.90;;;3.33;;
43835;SDS011;39345;43.964;25.340;2022-12-11T13:26:00;4.72;;;3.17;;
43835;SDS011;39345;43.964;25.340;2022-12-11T13:28:30;4.10;;;3.03;;
43835;SDS011;39345;43.964;25.340;2022-12-11T13:30:58;4.45;;;3.20;;
43835;SDS011;39345;43.964;25.340;2022-12-11T13:33:26;3.60;;;2.80;;
43835;SDS011;39345;43.964;25.340;2022-12-11T13:38:47;5.07;;;3.60;;
43835;SDS011;39345;43.964;25.340;2022-12-11T13:41:15;5.32;;;3.40;;
43835;SDS011;39345;43.964;25.340;2022-12-11T13:43:46;6.25;;;3.90;;
43835;SDS011;39345;43.964;25.340;2022-12-11T13:46:14;5.75;;;3.78;;
43835;SDS011;39345;43.964;25.340;2022-12-11T13:48:52;5.75;;;3.80;;
43835;SDS011;39345;43.964;25.340;2022-12-11T13:51:23;7.18;;;4.10;;
43835;SDS011;39345;43.964;25.340;2022-12-11T13:56:30;6.75;;;4.25;;
43835;SDS011;39345;43.964;25.340;2022-12-11T13:58:57;5.47;;;4.70;;
43835;SDS011;39345;43.964;25.340;2022-12-11T14:01:29;5.93;;;4.78;;
43835;SDS011;39345;43.964;25.340;2022-12-11T14:04:02;7.03;;;5.03;;
43835;SDS011;39345;43.964;25.340;2022-12-11T14:06:30;5.32;;;4.68;;
43835;SDS011;39345;43.964;25.340;2022-12-11T14:08:59;6.65;;;4.55;;
43835;SDS011;39345;43.964;25.340;2022-12-11T14:11:34;6.13;;;4.57;;
43835;SDS011;39345;43.964;25.340;2022-12-11T14:14:07;7.60;;;5.20;;
43835;SDS011;39345;43.964;25.340;2022-12-11T14:16:41;13.20;;;6.13;;
43835;SDS011;39345;43.964;25.340;2022-12-11T14:19:13;10.10;;;6.22;;
43835;SDS011;39345;43.964;25.340;2022-12-11T14:21:42;7.93;;;5.82;;
43835;SDS011;39345;43.964;25.340;2022-12-11T14:24:11;10.77;;;6.32;;
43835;SDS011;39345;43.964;25.340;2022-12-11T14:26:39;9.32;;;6.22;;
43835;SDS011;39345;43.964;25.340;2022-12-11T14:29:25;12.18;;;8.35;;
43835;SDS011;39345;43.964;25.340;2022-12-11T14:31:54;11.65;;;6.47;;
43835;SDS011;39345;43.964;25.340;2022-12-11T14:36:49;9.85;;;6.50;;
43835;SDS011;39345;43.964;25.340;2022-12-11T14:39:22;10.43;;;7.18;;
43835;SDS011;39345;43.964;25.340;2022-12-11T14:41:56;11.85;;;6.93;;
43835;SDS011;39345;43.964;25.340;2022-12-11T14:46:54;9.18;;;6.05;;
43835;SDS011;39345;43.964;25.340;2022-12-11T14:51:58;9.73;;;6.05;;
43835;SDS011;39345;43.964;25.340;2022-12-11T14:54:28;11.02;;;6.70;;
43835;SDS011;39345;43.964;25.340;2022-12-11T14:56:57;9.32;;;6.20;;
43835;SDS011;39345;43.964;25.340;2022-12-11T14:59:26;8.65;;;5.18;;
43835;SDS011;39345;43.964;25.340;2022-12-11T15:01:58;8.13;;;5.20;;
43835;SDS011;39345;43.964;25.340;2022-12-11T15:04:28;7.15;;;4.82;;
43835;SDS011;39345;43.964;25.340;2022-12-11T15:06:56;8.77;;;5.25;;
43835;SDS011;39345;43.964;25.340;2022-12-11T15:12:17;11.65;;;5.88;;
43835;SDS011;39345;43.964;25.340;2022-12-11T15:14:49;9.23;;;5.45;;
43835;SDS011;39345;43.964;25.340;2022-12-11T15:17:17;9.32;;;5.25;;
43835;SDS011;39345;43.964;25.340;2022-12-11T15:19:49;8.00;;;5.05;;
43835;SDS011;39345;43.964;25.340;2022-12-11T15:22:18;7.88;;;5.05;;
43835;SDS011;39345;43.964;25.340;2022-12-11T15:24:50;7.65;;;4.70;;
43835;SDS011;39345;43.964;25.340;2022-12-11T15:29:48;10.95;;;4.47;;
43835;SDS011;39345;43.964;25.340;2022-12-11T15:32:17;7.05;;;4.43;;
43835;SDS011;39345;43.964;25.340;2022-12-11T15:37:31;7.18;;;4.57;;
43835;SDS011;39345;43.964;25.340;2022-12-11T15:40:01;8.55;;;4.38;;
43835;SDS011;39345;43.964;25.340;2022-12-11T15:42:31;6.40;;;4.20;;
43835;SDS011;39345;43.964;25.340;2022-12-11T15:45:00;9.15;;;4.82;;
43835;SDS011;39345;43.964;25.340;2022-12-11T15:47:29;10.35;;;4.30;;
43835;SDS011;39345;43.964;25.340;2022-12-11T15:49:58;6.45;;;3.90;;
43835;SDS011;39345;43.964;25.340;2022-12-11T15:52:25;4.95;;;3.50;;
43835;SDS011;39345;43.964;25.340;2022-12-11T15:54:53;3.75;;;3.03;;
43835;SDS011;39345;43.964;25.340;2022-12-11T15:57:21;4.63;;;3.22;;
43835;SDS011;39345;43.964;25.340;2022-12-11T15:59:50;4.10;;;3.08;;
43835;SDS011;39345;43.964;25.340;2022-12-11T16:02:18;4.18;;;2.72;;
43835;SDS011;39345;43.964;25.340;2022-12-11T16:04:46;4.88;;;3.22;;
43835;SDS011;39345;43.964;25.340;2022-12-11T16:07:14;4.30;;;3.20;;
43835;SDS011;39345;43.964;25.340;2022-12-11T16:09:43;5.68;;;3.30;;
43835;SDS011;39345;43.964;25.340;2022-12-11T16:12:11;5.55;;;3.40;;
43835;SDS011;39345;43.964;25.340;2022-12-11T16:14:40;8.38;;;3.55;;
43835;SDS011;39345;43.964;25.340;2022-12-11T16:17:10;4.90;;;3.60;;
43835;SDS011;39345;43.964;25.340;2022-12-11T16:19:39;5.65;;;3.13;;
43835;SDS011;39345;43.964;25.340;2022-12-11T16:22:07;5.05;;;3.50;;
43835;SDS011;39345;43.964;25.340;2022-12-11T16:24:35;4.93;;;3.83;;
43835;SDS011;39345;43.964;25.340;2022-12-11T16:27:03;8.23;;;4.60;;